sensor_id;sensor_type;location;lat;lon;timestamp;temperature;humidity
57829;DHT22;43657;52.698;6.314;2023-08-06T00:00:56;14.00;99.90
57829;DHT22;43657;52.698;6.314;2023-08-06T00:03:22;14.00;99.90
57829;DHT22;43657;52.698;6.314;2023-08-06T00:05:47;14.10;99.90
57829;DHT22;43657;52.698;6.314;2023-08-06T00:08:13;14.00;99.90
57829;DHT22;43657;52.698;6.314;2023-08-06T00:10:39;14.00;99.90
57829;DHT22;43657;52.698;6.314;2023-08-06T00:13:07;13.90;99.90
57829;DHT22;43657;52.698;6.314;2023-08-06T00:15:32;13.90;99.90
57829;DHT22;43657;52.698;6.314;2023-08-06T00:17:58;13.90;99.90
57829;DHT22;43657;52.698;6.314;2023-08-06T00:20:24;13.90;99.90
57829;DHT22;43657;52.698;6.314;2023-08-06T00:22:49;13.90;99.90
57829;DHT22;43657;52.698;6.314;2023-08-06T00:25:15;13.90;99.90
57829;DHT22;43657;52.698;6.314;2023-08-06T00:27:42;13.90;99.90
57829;DHT22;43657;52.698;6.314;2023-08-06T00:30:08;13.90;99.90
57829;DHT22;43657;52.698;6.314;2023-08-06T00:32:34;13.90;99.90
57829;DHT22;43657;52.698;6.314;2023-08-06T00:34:59;13.80;99.90
57829;DHT22;43657;52.698;6.314;2023-08-06T00:37:25;13.80;99.90
57829;DHT22;43657;52.698;6.314;2023-08-06T00:39:51;13.80;99.90
57829;DHT22;43657;52.698;6.314;2023-08-06T00:42:17;13.80;99.90
57829;DHT22;43657;52.698;6.314;2023-08-06T00:44:46;13.80;99.90
57829;DHT22;43657;52.698;6.314;2023-08-06T00:47:12;13.70;99.90
57829;DHT22;43657;52.698;6.314;2023-08-06T00:49:38;13.70;99.90
57829;DHT22;43657;52.698;6.314;2023-08-06T00:52:05;13.70;99.90
57829;DHT22;43657;52.698;6.314;2023-08-06T00:54:33;13.70;99.90
57829;DHT22;43657;52.698;6.314;2023-08-06T00:57:01;13.70;99.90
57829;DHT22;43657;52.698;6.314;2023-08-06T00:59:29;13.70;99.90
57829;DHT22;43657;52.698;6.314;2023-08-06T01:01:56;13.70;99.90
57829;DHT22;43657;52.698;6.314;2023-08-06T01:04:23;13.80;99.90
57829;DHT22;43657;52.698;6.314;2023-08-06T01:06:56;13.70;99.90
57829;DHT22;43657;52.698;6.314;2023-08-06T01:15:15;13.70;99.90
57829;DHT22;43657;52.698;6.314;2023-08-06T01:17:45;13.70;99.90
57829;DHT22;43657;52.698;6.314;2023-08-06T01:20:10;13.70;99.90
57829;DHT22;43657;52.698;6.314;2023-08-06T01:22:36;13.60;99.90
57829;DHT22;43657;52.698;6.314;2023-08-06T01:25:02;13.60;99.90
57829;DHT22;43657;52.698;6.314;2023-08-06T01:27:49;13.60;99.90
57829;DHT22;43657;52.698;6.314;2023-08-06T01:30:30;13.60;99.90
57829;DHT22;43657;52.698;6.314;2023-08-06T01:33:03;13.60;99.90
57829;DHT22;43657;52.698;6.314;2023-08-06T01:35:29;13.60;99.90
57829;DHT22;43657;52.698;6.314;2023-08-06T01:37:55;13.60;99.90
57829;DHT22;43657;52.698;6.314;2023-08-06T01:40:22;13.60;99.90
57829;DHT22;43657;52.698;6.314;2023-08-06T01:42:47;13.50;99.90
57829;DHT22;43657;52.698;6.314;2023-08-06T01:45:13;13.50;99.90
57829;DHT22;43657;52.698;6.314;2023-08-06T01:47:39;13.50;99.90
57829;DHT22;43657;52.698;6.314;2023-08-06T01:50:05;13.50;99.90
57829;DHT22;43657;52.698;6.314;2023-08-06T01:52:31;13.50;99.90
57829;DHT22;43657;52.698;6.314;2023-08-06T01:54:56;13.50;99.90
57829;DHT22;43657;52.698;6.314;2023-08-06T01:57:22;13.50;99.90
57829;DHT22;43657;52.698;6.314;2023-08-06T01:59:48;13.50;99.90
57829;DHT22;43657;52.698;6.314;2023-08-06T02:02:13;13.50;99.90
57829;DHT22;43657;52.698;6.314;2023-08-06T02:04:39;13.50;99.90
57829;DHT22;43657;52.698;6.314;2023-08-06T02:07:05;13.50;99.90
57829;DHT22;43657;52.698;6.314;2023-08-06T02:09:30;13.50;99.90
57829;DHT22;43657;52.698;6.314;2023-08-06T02:11:56;13.50;99.90
57829;DHT22;43657;52.698;6.314;2023-08-06T02:14:22;13.50;99.90
57829;DHT22;43657;52.698;6.314;2023-08-06T02:16:47;13.50;99.90
57829;DHT22;43657;52.698;6.314;2023-08-06T02:19:14;13.50;99.90
57829;DHT22;43657;52.698;6.314;2023-08-06T02:21:39;13.50;99.90
57829;DHT22;43657;52.698;6.314;2023-08-06T02:24:05;13.50;99.90
57829;DHT22;43657;52.698;6.314;2023-08-06T02:26:30;13.50;99.90
57829;DHT22;43657;52.698;6.314;2023-08-06T02:28:56;13.50;99.90
57829;DHT22;43657;52.698;6.314;2023-08-06T02:31:22;13.40;99.90
57829;DHT22;43657;52.698;6.314;2023-08-06T02:33:47;13.40;99.90
57829;DHT22;43657;52.698;6.314;2023-08-06T02:36:13;13.40;99.90
57829;DHT22;43657;52.698;6.314;2023-08-06T02:38:39;13.40;99.90
57829;DHT22;43657;52.698;6.314;2023-08-06T02:41:04;13.40;99.90
57829;DHT22;43657;52.698;6.314;2023-08-06T02:43:30;13.30;99.90
57829;DHT22;43657;52.698;6.314;2023-08-06T02:46:00;13.30;99.90
57829;DHT22;43657;52.698;6.314;2023-08-06T02:48:26;13.30;99.90
57829;DHT22;43657;52.698;6.314;2023-08-06T02:50:51;13.30;99.90
57829;DHT22;43657;52.698;6.314;2023-08-06T02:53:17;13.30;99.90
57829;DHT22;43657;52.698;6.314;2023-08-06T02:55:47;13.20;99.90
57829;DHT22;43657;52.698;6.314;2023-08-06T02:58:14;13.20;99.90
57829;DHT22;43657;52.698;6.314;2023-08-06T03:00:40;13.20;99.90
57829;DHT22;43657;52.698;6.314;2023-08-06T03:03:05;13.20;99.90
57829;DHT22;43657;52.698;6.314;2023-08-06T03:05:31;13.20;99.90
57829;DHT22;43657;52.698;6.314;2023-08-06T03:07:57;13.20;99.90
57829;DHT22;43657;52.698;6.314;2023-08-06T03:10:22;13.20;99.90
57829;DHT22;43657;52.698;6.314;2023-08-06T03:12:48;13.30;99.90
57829;DHT22;43657;52.698;6.314;2023-08-06T03:15:14;13.30;99.90
57829;DHT22;43657;52.698;6.314;2023-08-06T03:17:39;13.30;99.90
57829;DHT22;43657;52.698;6.314;2023-08-06T03:20:06;13.30;99.90
57829;DHT22;43657;52.698;6.314;2023-08-06T03:22:31;13.30;99.90
57829;DHT22;43657;52.698;6.314;2023-08-06T03:24:57;13.30;99.90
57829;DHT22;43657;52.698;6.314;2023-08-06T03:27:23;13.40;99.90
57829;DHT22;43657;52.698;6.314;2023-08-06T03:29:49;13.40;99.90
57829;DHT22;43657;52.698;6.314;2023-08-06T03:32:15;13.40;99.90
57829;DHT22;43657;52.698;6.314;2023-08-06T03:34:41;13.40;99.90
57829;DHT22;43657;52.698;6.314;2023-08-06T03:37:07;13.40;99.90
57829;DHT22;43657;52.698;6.314;2023-08-06T03:39:33;13.40;99.90
57829;DHT22;43657;52.698;6.314;2023-08-06T03:41:58;13.40;99.90
57829;DHT22;43657;52.698;6.314;2023-08-06T03:44:24;13.30;99.90
57829;DHT22;43657;52.698;6.314;2023-08-06T03:46:50;13.40;99.90
57829;DHT22;43657;52.698;6.314;2023-08-06T03:49:15;13.40;99.90
57829;DHT22;43657;52.698;6.314;2023-08-06T03:51:41;13.50;99.90
57829;DHT22;43657;52.698;6.314;2023-08-06T03:54:07;13.50;99.90
57829;DHT22;43657;52.698;6.314;2023-08-06T03:56:32;13.50;99.90
57829;DHT22;43657;52.698;6.314;2023-08-06T03:58:58;13.40;99.90
57829;DHT22;43657;52.698;6.314;2023-08-06T04:01:24;13.50;99.90
57829;DHT22;43657;52.698;6.314;2023-08-06T04:03:49;13.50;99.90
57829;DHT22;43657;52.698;6.314;2023-08-06T04:06:15;13.50;99.90
57829;DHT22;43657;52.698;6.314;2023-08-06T04:08:40;13.50;99.90
57829;DHT22;43657;52.698;6.314;2023-08-06T04:11:06;13.50;99.90
57829;DHT22;43657;52.698;6.314;2023-08-06T04:13:33;13.40;99.90
57829;DHT22;43657;52.698;6.314;2023-08-06T04:16:03;13.40;99.90
57829;DHT22;43657;52.698;6.314;2023-08-06T04:18:28;13.50;99.90
57829;DHT22;43657;52.698;6.314;2023-08-06T04:20:54;13.50;99.90
57829;DHT22;43657;52.698;6.314;2023-08-06T04:23:21;13.50;99.90
57829;DHT22;43657;52.698;6.314;2023-08-06T04:25:46;13.50;99.90
57829;DHT22;43657;52.698;6.314;2023-08-06T04:28:12;13.50;99.90
57829;DHT22;43657;52.698;6.314;2023-08-06T04:30:38;13.50;99.90
57829;DHT22;43657;52.698;6.314;2023-08-06T04:33:04;13.60;99.90
57829;DHT22;43657;52.698;6.314;2023-08-06T04:35:30;13.50;99.90
57829;DHT22;43657;52.698;6.314;2023-08-06T04:37:55;13.60;99.90
57829;DHT22;43657;52.698;6.314;2023-08-06T04:40:21;13.60;99.90
57829;DHT22;43657;52.698;6.314;2023-08-06T04:42:47;13.60;99.90
57829;DHT22;43657;52.698;6.314;2023-08-06T04:45:12;13.60;99.90
57829;DHT22;43657;52.698;6.314;2023-08-06T04:47:38;13.60;99.90
57829;DHT22;43657;52.698;6.314;2023-08-06T04:50:04;13.60;99.90
57829;DHT22;43657;52.698;6.314;2023-08-06T04:52:29;13.60;99.90
57829;DHT22;43657;52.698;6.314;2023-08-06T04:54:58;13.60;99.90
57829;DHT22;43657;52.698;6.314;2023-08-06T04:57:23;13.60;99.90
57829;DHT22;43657;52.698;6.314;2023-08-06T04:59:49;13.60;99.90
57829;DHT22;43657;52.698;6.314;2023-08-06T05:02:15;13.60;99.90
57829;DHT22;43657;52.698;6.314;2023-08-06T05:04:41;13.60;99.90
57829;DHT22;43657;52.698;6.314;2023-08-06T05:07:07;13.70;99.90
57829;DHT22;43657;52.698;6.314;2023-08-06T05:09:33;13.70;99.90
57829;DHT22;43657;52.698;6.314;2023-08-06T05:12:04;13.70;99.90
57829;DHT22;43657;52.698;6.314;2023-08-06T05:14:29;13.70;99.90
57829;DHT22;43657;52.698;6.314;2023-08-06T05:16:55;13.80;99.90
57829;DHT22;43657;52.698;6.314;2023-08-06T05:19:23;13.80;99.90
57829;DHT22;43657;52.698;6.314;2023-08-06T05:21:51;13.90;99.90
57829;DHT22;43657;52.698;6.314;2023-08-06T05:24:17;13.80;99.90
57829;DHT22;43657;52.698;6.314;2023-08-06T05:26:43;13.90;99.90
57829;DHT22;43657;52.698;6.314;2023-08-06T05:29:12;13.90;99.90
57829;DHT22;43657;52.698;6.314;2023-08-06T05:31:37;13.90;99.90
57829;DHT22;43657;52.698;6.314;2023-08-06T05:34:03;13.90;99.90
57829;DHT22;43657;52.698;6.314;2023-08-06T05:36:28;14.00;99.90
57829;DHT22;43657;52.698;6.314;2023-08-06T05:38:54;13.90;99.90
57829;DHT22;43657;52.698;6.314;2023-08-06T05:41:20;14.00;99.90
57829;DHT22;43657;52.698;6.314;2023-08-06T05:43:45;14.00;99.90
57829;DHT22;43657;52.698;6.314;2023-08-06T05:46:11;14.10;99.90
57829;DHT22;43657;52.698;6.314;2023-08-06T05:48:37;14.00;99.90
57829;DHT22;43657;52.698;6.314;2023-08-06T05:51:03;14.10;99.90
57829;DHT22;43657;52.698;6.314;2023-08-06T05:53:31;14.00;99.90
57829;DHT22;43657;52.698;6.314;2023-08-06T05:55:58;14.00;99.90
57829;DHT22;43657;52.698;6.314;2023-08-06T05:58:23;14.10;99.90
57829;DHT22;43657;52.698;6.314;2023-08-06T06:00:52;14.10;99.90
57829;DHT22;43657;52.698;6.314;2023-08-06T06:03:17;14.10;99.90
57829;DHT22;43657;52.698;6.314;2023-08-06T06:05:49;14.20;99.90
57829;DHT22;43657;52.698;6.314;2023-08-06T06:08:14;14.20;99.90
57829;DHT22;43657;52.698;6.314;2023-08-06T06:10:45;14.20;99.90
57829;DHT22;43657;52.698;6.314;2023-08-06T06:13:31;14.20;99.90
57829;DHT22;43657;52.698;6.314;2023-08-06T06:16:02;14.30;99.90
57829;DHT22;43657;52.698;6.314;2023-08-06T06:18:31;14.30;99.90
57829;DHT22;43657;52.698;6.314;2023-08-06T06:20:58;14.40;99.90
57829;DHT22;43657;52.698;6.314;2023-08-06T06:23:33;14.40;99.90
57829;DHT22;43657;52.698;6.314;2023-08-06T06:26:02;14.40;99.90
57829;DHT22;43657;52.698;6.314;2023-08-06T06:28:28;14.50;99.90
57829;DHT22;43657;52.698;6.314;2023-08-06T06:30:54;14.50;99.90
57829;DHT22;43657;52.698;6.314;2023-08-06T06:33:34;14.50;99.90
57829;DHT22;43657;52.698;6.314;2023-08-06T06:35:59;14.50;99.90
57829;DHT22;43657;52.698;6.314;2023-08-06T06:38:28;14.40;99.90
57829;DHT22;43657;52.698;6.314;2023-08-06T06:41:16;14.40;99.90
57829;DHT22;43657;52.698;6.314;2023-08-06T06:43:42;14.60;99.90
57829;DHT22;43657;52.698;6.314;2023-08-06T06:49:36;14.40;99.90
57829;DHT22;43657;52.698;6.314;2023-08-06T06:52:02;14.60;99.90
57829;DHT22;43657;52.698;6.314;2023-08-06T07:11:36;14.60;99.90
57829;DHT22;43657;52.698;6.314;2023-08-06T07:25:03;14.80;99.90
57829;DHT22;43657;52.698;6.314;2023-08-06T07:28:11;14.90;99.90
57829;DHT22;43657;52.698;6.314;2023-08-06T07:45:36;15.10;99.90
57829;DHT22;43657;52.698;6.314;2023-08-06T07:51:28;15.40;99.90
57829;DHT22;43657;52.698;6.314;2023-08-06T07:53:59;15.40;99.90
57829;DHT22;43657;52.698;6.314;2023-08-06T07:57:09;15.50;99.90
57829;DHT22;43657;52.698;6.314;2023-08-06T07:59:35;15.50;99.90
57829;DHT22;43657;52.698;6.314;2023-08-06T08:02:01;15.60;99.90
57829;DHT22;43657;52.698;6.314;2023-08-06T08:04:27;15.70;99.90
57829;DHT22;43657;52.698;6.314;2023-08-06T08:13:22;15.80;99.90
57829;DHT22;43657;52.698;6.314;2023-08-06T08:16:25;15.80;99.90
57829;DHT22;43657;52.698;6.314;2023-08-06T08:18:53;15.80;99.90
57829;DHT22;43657;52.698;6.314;2023-08-06T08:21:24;15.80;99.90
57829;DHT22;43657;52.698;6.314;2023-08-06T08:24:20;15.90;99.90
57829;DHT22;43657;52.698;6.314;2023-08-06T08:26:52;16.00;99.90
57829;DHT22;43657;52.698;6.314;2023-08-06T08:29:22;16.00;99.90
57829;DHT22;43657;52.698;6.314;2023-08-06T08:31:50;16.00;99.90
57829;DHT22;43657;52.698;6.314;2023-08-06T08:34:19;16.00;99.90
57829;DHT22;43657;52.698;6.314;2023-08-06T08:37:24;15.90;99.90
57829;DHT22;43657;52.698;6.314;2023-08-06T08:39:50;16.00;99.90
57829;DHT22;43657;52.698;6.314;2023-08-06T08:42:55;16.00;99.90
57829;DHT22;43657;52.698;6.314;2023-08-06T08:45:57;16.20;99.90
57829;DHT22;43657;52.698;6.314;2023-08-06T08:51:13;16.30;99.90
57829;DHT22;43657;52.698;6.314;2023-08-06T09:01:41;16.30;99.90
57829;DHT22;43657;52.698;6.314;2023-08-06T09:04:39;16.50;99.90
57829;DHT22;43657;52.698;6.314;2023-08-06T09:07:20;16.70;99.90
57829;DHT22;43657;52.698;6.314;2023-08-06T09:13:20;16.80;99.90
57829;DHT22;43657;52.698;6.314;2023-08-06T09:16:44;17.00;99.90
57829;DHT22;43657;52.698;6.314;2023-08-06T09:19:51;17.00;99.90
57829;DHT22;43657;52.698;6.314;2023-08-06T09:25:38;17.30;99.90
57829;DHT22;43657;52.698;6.314;2023-08-06T09:28:12;17.40;99.90
57829;DHT22;43657;52.698;6.314;2023-08-06T09:31:02;17.40;99.90
57829;DHT22;43657;52.698;6.314;2023-08-06T09:33:56;17.50;99.90
57829;DHT22;43657;52.698;6.314;2023-08-06T09:36:41;17.60;99.90
57829;DHT22;43657;52.698;6.314;2023-08-06T09:39:59;17.70;99.90
57829;DHT22;43657;52.698;6.314;2023-08-06T09:43:18;17.80;99.90
57829;DHT22;43657;52.698;6.314;2023-08-06T09:49:01;18.00;99.90
57829;DHT22;43657;52.698;6.314;2023-08-06T09:51:51;18.10;99.90
57829;DHT22;43657;52.698;6.314;2023-08-06T09:54:54;18.20;99.90
57829;DHT22;43657;52.698;6.314;2023-08-06T10:00:30;18.30;99.90
57829;DHT22;43657;52.698;6.314;2023-08-06T10:03:35;18.40;99.90
57829;DHT22;43657;52.698;6.314;2023-08-06T10:10:10;18.70;99.90
57829;DHT22;43657;52.698;6.314;2023-08-06T10:17:04;18.90;99.90
57829;DHT22;43657;52.698;6.314;2023-08-06T10:20:10;19.00;99.90
57829;DHT22;43657;52.698;6.314;2023-08-06T10:22:36;19.10;99.90
57829;DHT22;43657;52.698;6.314;2023-08-06T10:25:02;19.00;99.90
57829;DHT22;43657;52.698;6.314;2023-08-06T10:32:50;19.00;99.90
57829;DHT22;43657;52.698;6.314;2023-08-06T10:38:11;19.40;99.90
57829;DHT22;43657;52.698;6.314;2023-08-06T10:41:01;19.60;99.90
57829;DHT22;43657;52.698;6.314;2023-08-06T10:43:34;19.70;99.90
57829;DHT22;43657;52.698;6.314;2023-08-06T10:46:09;19.80;99.90
57829;DHT22;43657;52.698;6.314;2023-08-06T10:48:37;20.00;99.90
57829;DHT22;43657;52.698;6.314;2023-08-06T10:51:04;20.10;99.90
57829;DHT22;43657;52.698;6.314;2023-08-06T10:53:30;20.20;99.90
57829;DHT22;43657;52.698;6.314;2023-08-06T10:55:56;20.40;99.90
57829;DHT22;43657;52.698;6.314;2023-08-06T10:58:22;20.50;99.90
57829;DHT22;43657;52.698;6.314;2023-08-06T11:00:48;20.70;99.90
57829;DHT22;43657;52.698;6.314;2023-08-06T11:03:14;20.80;99.90
57829;DHT22;43657;52.698;6.314;2023-08-06T11:05:40;20.90;99.90
57829;DHT22;43657;52.698;6.314;2023-08-06T11:08:06;20.80;99.90
57829;DHT22;43657;52.698;6.314;2023-08-06T11:10:34;20.80;99.90
57829;DHT22;43657;52.698;6.314;2023-08-06T11:13:03;20.90;99.90
57829;DHT22;43657;52.698;6.314;2023-08-06T11:15:30;21.10;99.90
57829;DHT22;43657;52.698;6.314;2023-08-06T11:17:56;21.40;99.90
57829;DHT22;43657;52.698;6.314;2023-08-06T11:20:22;21.80;99.90
57829;DHT22;43657;52.698;6.314;2023-08-06T11:22:50;22.00;99.90
57829;DHT22;43657;52.698;6.314;2023-08-06T11:25:16;21.90;99.90
57829;DHT22;43657;52.698;6.314;2023-08-06T11:27:41;21.80;99.90
57829;DHT22;43657;52.698;6.314;2023-08-06T11:30:07;21.70;99.90
57829;DHT22;43657;52.698;6.314;2023-08-06T11:32:45;21.40;99.90
57829;DHT22;43657;52.698;6.314;2023-08-06T11:35:11;21.50;99.90
57829;DHT22;43657;52.698;6.314;2023-08-06T11:37:40;21.70;99.90
57829;DHT22;43657;52.698;6.314;2023-08-06T11:40:09;22.10;99.90
57829;DHT22;43657;52.698;6.314;2023-08-06T11:42:36;22.30;99.90
57829;DHT22;43657;52.698;6.314;2023-08-06T11:45:03;22.30;99.90
57829;DHT22;43657;52.698;6.314;2023-08-06T11:47:30;22.30;99.90
57829;DHT22;43657;52.698;6.314;2023-08-06T11:49:56;22.40;99.90
57829;DHT22;43657;52.698;6.314;2023-08-06T11:52:24;22.50;99.90
57829;DHT22;43657;52.698;6.314;2023-08-06T11:55:06;22.30;99.90
57829;DHT22;43657;52.698;6.314;2023-08-06T11:57:34;22.10;99.90
57829;DHT22;43657;52.698;6.314;2023-08-06T12:00:07;21.70;99.90
57829;DHT22;43657;52.698;6.314;2023-08-06T12:02:34;21.30;99.90
57829;DHT22;43657;52.698;6.314;2023-08-06T12:07:38;21.00;99.90
57829;DHT22;43657;52.698;6.314;2023-08-06T12:10:05;21.00;99.90
57829;DHT22;43657;52.698;6.314;2023-08-06T12:12:31;21.10;99.90
57829;DHT22;43657;52.698;6.314;2023-08-06T12:14:56;21.20;99.90
57829;DHT22;43657;52.698;6.314;2023-08-06T12:17:24;21.20;99.90
57829;DHT22;43657;52.698;6.314;2023-08-06T12:19:49;21.30;99.90
57829;DHT22;43657;52.698;6.314;2023-08-06T12:22:15;21.40;99.90
57829;DHT22;43657;52.698;6.314;2023-08-06T12:24:42;21.40;99.90
57829;DHT22;43657;52.698;6.314;2023-08-06T12:27:08;21.50;99.90
57829;DHT22;43657;52.698;6.314;2023-08-06T12:29:34;21.60;99.90
57829;DHT22;43657;52.698;6.314;2023-08-06T12:31:59;22.10;99.90
57829;DHT22;43657;52.698;6.314;2023-08-06T12:34:25;22.20;99.90
57829;DHT22;43657;52.698;6.314;2023-08-06T12:36:51;21.90;99.90
57829;DHT22;43657;52.698;6.314;2023-08-06T12:39:16;21.40;99.90
57829;DHT22;43657;52.698;6.314;2023-08-06T12:41:42;21.10;99.90
57829;DHT22;43657;52.698;6.314;2023-08-06T12:44:09;20.70;99.90
57829;DHT22;43657;52.698;6.314;2023-08-06T12:46:34;20.40;99.90
57829;DHT22;43657;52.698;6.314;2023-08-06T12:49:00;20.10;99.90
57829;DHT22;43657;52.698;6.314;2023-08-06T12:51:25;19.90;99.90
57829;DHT22;43657;52.698;6.314;2023-08-06T12:53:51;19.70;99.90
57829;DHT22;43657;52.698;6.314;2023-08-06T12:56:17;19.50;99.90
57829;DHT22;43657;52.698;6.314;2023-08-06T12:58:42;19.30;99.90
57829;DHT22;43657;52.698;6.314;2023-08-06T13:01:08;19.20;99.90
57829;DHT22;43657;52.698;6.314;2023-08-06T13:03:33;19.20;99.90
57829;DHT22;43657;52.698;6.314;2023-08-06T13:05:59;19.10;99.90
57829;DHT22;43657;52.698;6.314;2023-08-06T13:08:25;19.10;99.90
57829;DHT22;43657;52.698;6.314;2023-08-06T13:10:50;19.20;99.90
57829;DHT22;43657;52.698;6.314;2023-08-06T13:13:16;19.30;99.90
57829;DHT22;43657;52.698;6.314;2023-08-06T13:15:41;19.50;99.90
57829;DHT22;43657;52.698;6.314;2023-08-06T13:18:07;19.70;99.90
57829;DHT22;43657;52.698;6.314;2023-08-06T13:20:32;19.80;99.90
57829;DHT22;43657;52.698;6.314;2023-08-06T13:22:59;19.70;99.90
57829;DHT22;43657;52.698;6.314;2023-08-06T13:25:26;19.80;99.90
57829;DHT22;43657;52.698;6.314;2023-08-06T13:27:53;20.00;99.90
57829;DHT22;43657;52.698;6.314;2023-08-06T13:30:20;20.30;99.90
57829;DHT22;43657;52.698;6.314;2023-08-06T13:32:45;20.60;99.90
57829;DHT22;43657;52.698;6.314;2023-08-06T13:35:11;21.00;99.90
57829;DHT22;43657;52.698;6.314;2023-08-06T13:37:37;21.00;99.90
57829;DHT22;43657;52.698;6.314;2023-08-06T13:40:02;20.80;99.90
57829;DHT22;43657;52.698;6.314;2023-08-06T13:42:28;20.50;99.90
57829;DHT22;43657;52.698;6.314;2023-08-06T13:44:54;20.10;99.90
57829;DHT22;43657;52.698;6.314;2023-08-06T13:47:27;19.80;99.90
57829;DHT22;43657;52.698;6.314;2023-08-06T13:49:53;19.30;99.90
57829;DHT22;43657;52.698;6.314;2023-08-06T13:52:19;18.80;99.90
57829;DHT22;43657;52.698;6.314;2023-08-06T13:54:45;18.20;99.90
57829;DHT22;43657;52.698;6.314;2023-08-06T13:57:10;17.80;99.90
57829;DHT22;43657;52.698;6.314;2023-08-06T13:59:36;17.40;99.90
57829;DHT22;43657;52.698;6.314;2023-08-06T14:02:01;17.20;99.90
57829;DHT22;43657;52.698;6.314;2023-08-06T14:04:27;17.10;99.90
57829;DHT22;43657;52.698;6.314;2023-08-06T14:06:52;17.00;99.90
57829;DHT22;43657;52.698;6.314;2023-08-06T14:09:18;16.90;99.90
57829;DHT22;43657;52.698;6.314;2023-08-06T14:11:44;16.80;99.90
57829;DHT22;43657;52.698;6.314;2023-08-06T14:14:11;16.80;99.90
57829;DHT22;43657;52.698;6.314;2023-08-06T14:16:37;16.70;99.90
57829;DHT22;43657;52.698;6.314;2023-08-06T14:19:03;16.70;99.90
57829;DHT22;43657;52.698;6.314;2023-08-06T14:21:28;16.70;99.90
57829;DHT22;43657;52.698;6.314;2023-08-06T14:23:54;16.70;99.90
57829;DHT22;43657;52.698;6.314;2023-08-06T14:26:20;16.70;99.90
57829;DHT22;43657;52.698;6.314;2023-08-06T14:28:45;16.70;99.90
57829;DHT22;43657;52.698;6.314;2023-08-06T14:31:12;16.50;99.90
57829;DHT22;43657;52.698;6.314;2023-08-06T14:33:37;16.50;99.90
57829;DHT22;43657;52.698;6.314;2023-08-06T14:36:03;16.50;99.90
57829;DHT22;43657;52.698;6.314;2023-08-06T14:38:29;16.30;99.90
57829;DHT22;43657;52.698;6.314;2023-08-06T14:40:54;16.30;99.90
57829;DHT22;43657;52.698;6.314;2023-08-06T14:43:20;16.20;99.90
57829;DHT22;43657;52.698;6.314;2023-08-06T14:45:46;16.10;99.90
57829;DHT22;43657;52.698;6.314;2023-08-06T14:48:11;16.10;99.90
57829;DHT22;43657;52.698;6.314;2023-08-06T14:50:37;16.00;99.90
57829;DHT22;43657;52.698;6.314;2023-08-06T14:53:04;16.00;99.90
57829;DHT22;43657;52.698;6.314;2023-08-06T14:55:31;16.00;99.90
57829;DHT22;43657;52.698;6.314;2023-08-06T14:57:58;16.00;99.90
57829;DHT22;43657;52.698;6.314;2023-08-06T15:00:23;16.00;99.90
57829;DHT22;43657;52.698;6.314;2023-08-06T15:02:49;15.90;99.90
57829;DHT22;43657;52.698;6.314;2023-08-06T15:05:15;15.90;99.90
57829;DHT22;43657;52.698;6.314;2023-08-06T15:07:41;15.80;99.90
57829;DHT22;43657;52.698;6.314;2023-08-06T15:10:07;15.60;99.90
57829;DHT22;43657;52.698;6.314;2023-08-06T15:12:33;15.70;99.90
57829;DHT22;43657;52.698;6.314;2023-08-06T15:14:58;15.70;99.90
57829;DHT22;43657;52.698;6.314;2023-08-06T15:17:26;15.60;99.90
57829;DHT22;43657;52.698;6.314;2023-08-06T15:19:52;15.60;99.90
57829;DHT22;43657;52.698;6.314;2023-08-06T15:22:17;15.60;99.90
57829;DHT22;43657;52.698;6.314;2023-08-06T15:24:43;15.60;99.90
57829;DHT22;43657;52.698;6.314;2023-08-06T15:27:09;15.60;99.90
57829;DHT22;43657;52.698;6.314;2023-08-06T15:29:35;15.60;99.90
57829;DHT22;43657;52.698;6.314;2023-08-06T15:32:01;15.60;99.90
57829;DHT22;43657;52.698;6.314;2023-08-06T15:34:26;15.60;99.90
57829;DHT22;43657;52.698;6.314;2023-08-06T15:36:52;15.60;99.90
57829;DHT22;43657;52.698;6.314;2023-08-06T15:39:18;15.60;99.90
57829;DHT22;43657;52.698;6.314;2023-08-06T15:41:43;15.70;99.90
57829;DHT22;43657;52.698;6.314;2023-08-06T15:44:09;15.70;99.90
57829;DHT22;43657;52.698;6.314;2023-08-06T15:46:34;15.70;99.90
57829;DHT22;43657;52.698;6.314;2023-08-06T15:49:02;15.70;99.90
57829;DHT22;43657;52.698;6.314;2023-08-06T15:51:27;15.70;99.90
57829;DHT22;43657;52.698;6.314;2023-08-06T15:53:53;15.60;99.90
57829;DHT22;43657;52.698;6.314;2023-08-06T15:56:19;15.60;99.90
57829;DHT22;43657;52.698;6.314;2023-08-06T15:58:44;15.60;99.90
57829;DHT22;43657;52.698;6.314;2023-08-06T16:01:10;15.60;99.90
57829;DHT22;43657;52.698;6.314;2023-08-06T16:03:37;15.70;99.90
57829;DHT22;43657;52.698;6.314;2023-08-06T16:06:04;15.60;99.90
57829;DHT22;43657;52.698;6.314;2023-08-06T16:08:30;15.60;99.90
57829;DHT22;43657;52.698;6.314;2023-08-06T16:10:56;15.70;99.90
57829;DHT22;43657;52.698;6.314;2023-08-06T16:13:22;15.80;99.90
57829;DHT22;43657;52.698;6.314;2023-08-06T16:15:48;15.80;99.90
57829;DHT22;43657;52.698;6.314;2023-08-06T16:18:14;15.80;99.90
57829;DHT22;43657;52.698;6.314;2023-08-06T16:20:43;15.80;99.90
57829;DHT22;43657;52.698;6.314;2023-08-06T16:23:10;15.80;99.90
57829;DHT22;43657;52.698;6.314;2023-08-06T16:25:39;15.90;99.90
57829;DHT22;43657;52.698;6.314;2023-08-06T16:28:11;15.90;99.90
57829;DHT22;43657;52.698;6.314;2023-08-06T16:30:43;15.90;99.90
57829;DHT22;43657;52.698;6.314;2023-08-06T16:33:09;16.00;99.90
57829;DHT22;43657;52.698;6.314;2023-08-06T16:35:35;16.00;99.90
57829;DHT22;43657;52.698;6.314;2023-08-06T16:38:00;16.00;99.90
57829;DHT22;43657;52.698;6.314;2023-08-06T16:43:45;16.00;99.90
57829;DHT22;43657;52.698;6.314;2023-08-06T16:52:25;15.90;99.90
57829;DHT22;43657;52.698;6.314;2023-08-06T16:54:56;15.90;99.90
57829;DHT22;43657;52.698;6.314;2023-08-06T16:57:22;15.80;99.90
57829;DHT22;43657;52.698;6.314;2023-08-06T16:59:48;15.70;99.90
57829;DHT22;43657;52.698;6.314;2023-08-06T17:02:13;15.70;99.90
57829;DHT22;43657;52.698;6.314;2023-08-06T17:04:39;15.60;99.90
57829;DHT22;43657;52.698;6.314;2023-08-06T17:07:04;15.50;99.90
57829;DHT22;43657;52.698;6.314;2023-08-06T17:09:30;15.40;99.90
57829;DHT22;43657;52.698;6.314;2023-08-06T17:11:56;15.40;99.90
57829;DHT22;43657;52.698;6.314;2023-08-06T17:14:21;15.30;99.90
57829;DHT22;43657;52.698;6.314;2023-08-06T17:16:47;15.30;99.90
57829;DHT22;43657;52.698;6.314;2023-08-06T17:19:12;15.30;99.90
57829;DHT22;43657;52.698;6.314;2023-08-06T17:21:38;15.20;99.90
57829;DHT22;43657;52.698;6.314;2023-08-06T17:24:04;15.30;99.90
57829;DHT22;43657;52.698;6.314;2023-08-06T17:26:30;15.30;99.90
57829;DHT22;43657;52.698;6.314;2023-08-06T17:28:56;15.20;99.90
57829;DHT22;43657;52.698;6.314;2023-08-06T17:31:22;15.20;99.90
57829;DHT22;43657;52.698;6.314;2023-08-06T17:33:48;15.20;99.90